createdAt,value
2023-04-02T00:00:25.972Z,100913.94
2023-04-02T00:01:37.060Z,100913.28
2023-04-02T00:02:48.152Z,100885.22
2023-04-02T00:04:15.675Z,100917.97
2023-04-02T00:05:44.099Z,100916.72
2023-04-02T00:06:47.775Z,100916.94
2023-04-02T00:07:53.723Z,100919.69
2023-04-02T00:08:58.561Z,100918.88
2023-04-02T00:10:02.212Z,100920.16
2023-04-02T00:11:07.146Z,100917.88
2023-04-02T00:12:18.720Z,100923.25
2023-04-02T00:13:30.362Z,100916.94
2023-04-02T00:14:35.105Z,100899.00
2023-04-02T00:15:39.318Z,100926.28
2023-04-02T00:16:43.484Z,100901.41
2023-04-02T00:17:47.187Z,100929.38
2023-04-02T00:18:55.346Z,100931.19
2023-04-02T00:20:01.226Z,100935.34
2023-04-02T00:21:20.188Z,100928.31
2023-04-02T00:22:29.962Z,100941.31
2023-04-02T00:23:33.688Z,100945.38
2023-04-02T00:24:39.986Z,100946.81
2023-04-02T00:25:45.572Z,100945.22
2023-04-02T00:26:51.215Z,100948.69
2023-04-02T00:27:56.876Z,100937.88
2023-04-02T00:29:12.130Z,100951.03
2023-04-02T00:30:17.258Z,100937.41
2023-04-02T00:31:21.673Z,100950.09
2023-04-02T00:32:28.063Z,100953.06
2023-04-02T00:33:33.982Z,100959.50
2023-04-02T00:34:41.344Z,100943.50
2023-04-02T00:35:45.061Z,100922.94
2023-04-02T00:36:49.658Z,100954.06
2023-04-02T00:37:53.666Z,100961.66
2023-04-02T00:38:59.911Z,100957.50
2023-04-02T00:40:08.023Z,100963.28
2023-04-02T00:41:17.042Z,100958.56
2023-04-02T00:42:21.567Z,100956.28
2023-04-02T00:43:28.717Z,100964.19
2023-04-02T00:44:33.381Z,100965.91
2023-04-02T00:45:39.270Z,100971.44
2023-04-02T00:46:45.446Z,100965.56
2023-04-02T00:47:49.191Z,100974.31
2023-04-02T00:48:58.457Z,100970.28
2023-04-02T00:50:07.294Z,100976.50
2023-04-02T00:51:18.806Z,100971.09
2023-04-02T00:52:27.012Z,100975.13
2023-04-02T00:53:31.801Z,100975.69
2023-04-02T00:54:43.122Z,100981.00
2023-04-02T00:55:47.136Z,100980.88
2023-04-02T00:56:54.450Z,100979.84
2023-04-02T00:58:00.387Z,100981.94
2023-04-02T00:59:05.997Z,100975.22
2023-04-02T01:00:21.304Z,100980.75
2023-04-02T01:01:27.315Z,100979.25
2023-04-02T01:02:34.291Z,100974.88
2023-04-02T01:03:38.221Z,100987.66
2023-04-02T01:04:42.787Z,100978.25
2023-04-02T01:05:48.457Z,100984.44
2023-04-02T01:06:52.195Z,100981.22
2023-04-02T01:08:09.642Z,100983.16
2023-04-02T01:09:28.693Z,100987.19
2023-04-02T01:10:52.768Z,100991.91
2023-04-02T01:12:11.221Z,100988.47
2023-04-02T01:13:26.308Z,100995.25
2023-04-02T01:14:45.557Z,100996.03
2023-04-02T01:15:57.205Z,100986.75
2023-04-02T01:17:10.887Z,100988.81
2023-04-02T01:18:43.343Z,100988.56
2023-04-02T01:20:19.418Z,100992.75
2023-04-02T01:21:54.683Z,100997.78
2023-04-02T01:23:05.286Z,100994.56
2023-04-02T01:24:11.718Z,100992.72
2023-04-02T01:25:20.027Z,101009.50
2023-04-02T01:26:35.507Z,100998.19
2023-04-02T01:27:44.599Z,101003.03
2023-04-02T01:29:06.400Z,101007.50
2023-04-02T01:30:11.929Z,100990.84
2023-04-02T01:31:16.931Z,101003.56
2023-04-02T01:32:24.166Z,100997.81
2023-04-02T01:33:31.894Z,101007.50
2023-04-02T01:34:36.780Z,101013.25
2023-04-02T01:35:45.620Z,101006.91
2023-04-02T01:37:03.097Z,101004.03
2023-04-02T01:38:14.414Z,101014.28
2023-04-02T01:39:32.444Z,101010.97
2023-04-02T01:40:40.578Z,101012.00
2023-04-02T01:41:52.352Z,101004.78
2023-04-02T01:43:05.165Z,101009.59
2023-04-02T01:44:14.830Z,101005.00
2023-04-02T01:45:21.203Z,101004.50
2023-04-02T01:46:30.302Z,101003.56
2023-04-02T01:47:34.367Z,101014.28
2023-04-02T01:48:41.085Z,101013.66
2023-04-02T01:49:45.660Z,101011.69
2023-04-02T01:50:52.506Z,101014.91
2023-04-02T01:51:57.018Z,101024.72
2023-04-02T01:53:03.136Z,101011.50
2023-04-02T01:54:07.171Z,101021.75
2023-04-02T01:55:13.151Z,101017.28
2023-04-02T01:56:17.426Z,101025.59
2023-04-02T01:57:21.178Z,101018.66
2023-04-02T01:58:27.110Z,101022.56
2023-04-02T01:59:32.758Z,101012.94
2023-04-02T02:00:38.831Z,101004.97
2023-04-02T02:01:46.713Z,101027.53
2023-04-02T02:02:52.466Z,101016.69
2023-04-02T02:03:56.354Z,101026.47
2023-04-02T02:05:00.109Z,101027.53
2023-04-02T02:06:06.513Z,101020.72
2023-04-02T02:07:17.146Z,101024.53
2023-04-02T02:08:32.579Z,101031.66
2023-04-02T02:09:37.103Z,101031.56
2023-04-02T02:10:40.922Z,101004.88
2023-04-02T02:11:44.617Z,101021.88
2023-04-02T02:12:48.808Z,101020.06
2023-04-02T02:13:55.849Z,101022.69
2023-04-02T02:15:01.104Z,101029.00
2023-04-02T02:16:05.986Z,101024.66
2023-04-02T02:17:14.899Z,101023.16
2023-04-02T02:18:22.348Z,101024.41
2023-04-02T02:19:29.929Z,101023.63
2023-04-02T02:20:35.080Z,101017.28
2023-04-02T02:21:40.999Z,101019.75
2023-04-02T02:22:47.131Z,100999.66
2023-04-02T02:23:52.980Z,101013.31
2023-04-02T02:24:58.345Z,100990.88
2023-04-02T02:26:01.989Z,101023.97
2023-04-02T02:27:37.497Z,101027.63
2023-04-02T02:28:43.616Z,101026.81
2023-04-02T02:29:50.310Z,101024.31
2023-04-02T02:30:58.871Z,101022.47
2023-04-02T02:32:04.527Z,101023.28
2023-04-02T02:33:15.415Z,101020.53
2023-04-02T02:34:25.903Z,101028.44
2023-04-02T02:35:35.011Z,101017.19
2023-04-02T02:36:48.082Z,101027.84
2023-04-02T02:37:58.207Z,100997.28
2023-04-02T02:39:06.194Z,101027.84
2023-04-02T02:40:16.835Z,101029.34
2023-04-02T02:41:26.675Z,101032.84
2023-04-02T02:42:36.266Z,101026.97
2023-04-02T02:43:44.524Z,101013.66
2023-04-02T02:44:50.712Z,101028.94
2023-04-02T02:45:58.370Z,101028.50
2023-04-02T02:47:04.456Z,101030.00
2023-04-02T02:48:14.524Z,101031.84
2023-04-02T02:49:22.108Z,101033.38
2023-04-02T02:50:29.502Z,101007.94
2023-04-02T02:51:44.949Z,101015.19
2023-04-02T02:52:53.694Z,101039.34
2023-04-02T02:54:03.852Z,101045.69
2023-04-02T02:55:10.900Z,101036.16
2023-04-02T02:56:15.246Z,101033.97
2023-04-02T02:57:22.451Z,101034.97
2023-04-02T02:58:29.058Z,101012.09
2023-04-02T02:59:33.139Z,101031.63
2023-04-02T03:00:38.299Z,101027.44
2023-04-02T03:01:45.250Z,101029.16
2023-04-02T03:02:49.636Z,101025.88
2023-04-02T03:03:55.660Z,101028.38
2023-04-02T03:04:59.489Z,101025.28
2023-04-02T03:06:06.406Z,101022.19
2023-04-02T03:07:10.406Z,101023.00
2023-04-02T03:08:22.053Z,101017.09
2023-04-02T03:09:38.001Z,101016.31
2023-04-02T03:10:48.494Z,101014.16
2023-04-02T03:11:58.004Z,101020.59
2023-04-02T03:13:08.865Z,101010.94
2023-04-02T03:14:21.071Z,101018.09
2023-04-02T03:15:34.059Z,101015.50
2023-04-02T03:16:42.241Z,101018.78
2023-04-02T03:17:52.261Z,100979.38
2023-04-02T03:18:59.848Z,101008.56
2023-04-02T03:20:11.578Z,101003.09
2023-04-02T03:21:26.750Z,101006.97
2023-04-02T03:22:36.386Z,101002.56
2023-04-02T03:23:44.563Z,101003.22
2023-04-02T03:24:56.410Z,100996.63
2023-04-02T03:26:05.162Z,101009.31
2023-04-02T03:27:16.119Z,100999.91
2023-04-02T03:28:24.329Z,100997.25
2023-04-02T03:29:30.966Z,101002.59
2023-04-02T03:30:41.152Z,101000.00
2023-04-02T03:31:48.753Z,101001.22
2023-04-02T03:33:00.147Z,101005.19
2023-04-02T03:34:10.447Z,101008.84
2023-04-02T03:35:23.206Z,101005.25
2023-04-02T03:36:31.571Z,100998.84
2023-04-02T03:37:43.558Z,100985.88
2023-04-02T03:38:51.369Z,101000.78
2023-04-02T03:40:00.322Z,100998.28
2023-04-02T03:41:14.401Z,100993.31
2023-04-02T03:42:22.503Z,100987.88
2023-04-02T03:43:27.918Z,100993.50
2023-04-02T03:44:36.045Z,100989.81
2023-04-02T03:45:42.818Z,100993.13
2023-04-02T03:46:50.010Z,100992.50
2023-04-02T03:48:01.663Z,100993.38
2023-04-02T03:49:10.533Z,100986.53
2023-04-02T03:50:20.979Z,100989.28
2023-04-02T03:51:28.452Z,100993.81
2023-04-02T03:52:35.885Z,100987.22
2023-04-02T03:53:39.965Z,100994.56
2023-04-02T03:54:54.066Z,100984.75
2023-04-02T03:55:59.473Z,100992.56
2023-04-02T03:57:03.637Z,100995.09
2023-04-02T03:58:14.698Z,100986.16
2023-04-02T03:59:27.603Z,100989.81
2023-04-02T04:00:38.337Z,100986.78
2023-04-02T04:01:48.795Z,100981.25
2023-04-02T04:02:57.642Z,100977.31
2023-04-02T04:04:08.713Z,100976.56
2023-04-02T04:05:23.900Z,100976.53
2023-04-02T04:06:29.851Z,100978.03
2023-04-02T04:07:40.232Z,100952.69
2023-04-02T04:08:48.050Z,100973.06
2023-04-02T04:09:54.241Z,100968.16
2023-04-02T04:11:02.628Z,100941.97
2023-04-02T04:12:15.699Z,100953.78
2023-04-02T04:13:26.702Z,100974.13
2023-04-02T04:14:33.667Z,100972.94
2023-04-02T04:15:42.995Z,100962.03
2023-04-02T04:16:52.237Z,100972.59
2023-04-02T04:18:03.736Z,100970.72
2023-04-02T04:19:16.271Z,100973.09
2023-04-02T04:20:24.839Z,100964.94
2023-04-02T04:21:29.621Z,100961.00
2023-04-02T04:22:33.345Z,100970.13
2023-04-02T04:23:39.250Z,100966.91
2023-04-02T04:24:42.931Z,100968.59
2023-04-02T04:25:46.638Z,100968.50
2023-04-02T04:26:56.323Z,100965.00
2023-04-02T04:28:08.518Z,100964.13
2023-04-02T04:29:26.899Z,100965.75
2023-04-02T04:30:35.534Z,100957.75
2023-04-02T04:31:44.379Z,100953.50
2023-04-02T04:32:51.116Z,100957.88
2023-04-02T04:33:59.527Z,100939.06
2023-04-02T04:35:08.537Z,100947.50
2023-04-02T04:36:22.640Z,100944.22
2023-04-02T04:37:29.467Z,100949.69
2023-04-02T04:38:35.748Z,100948.44
2023-04-02T04:39:45.618Z,100947.94
2023-04-02T04:40:52.198Z,100940.88
2023-04-02T04:41:58.103Z,100934.19
2023-04-02T04:43:06.997Z,100942.72
2023-04-02T04:44:20.173Z,100933.78
2023-04-02T04:45:40.433Z,100928.28
2023-04-02T04:46:48.044Z,100927.69
2023-04-02T04:47:56.685Z,100923.91
2023-04-02T04:49:09.325Z,100923.44
2023-04-02T04:50:18.770Z,100914.19
2023-04-02T04:51:26.207Z,100908.22
2023-04-02T04:52:34.299Z,100908.47
2023-04-02T04:53:48.353Z,100905.81
2023-04-02T04:54:52.236Z,100902.03
2023-04-02T04:56:06.019Z,100899.59
2023-04-02T04:57:30.186Z,100899.06
2023-04-02T04:58:37.239Z,100902.22
2023-04-02T04:59:45.237Z,100897.44
2023-04-02T05:00:57.306Z,100893.69
2023-04-02T05:02:06.177Z,100875.13
2023-04-02T05:03:18.304Z,100891.78
2023-04-02T05:04:27.412Z,100904.84
2023-04-02T05:05:34.798Z,100894.06
2023-04-02T05:06:43.363Z,100891.94
2023-04-02T05:07:51.711Z,100886.19
2023-04-02T05:09:00.176Z,100888.31
2023-04-02T05:10:12.223Z,100896.22
2023-04-02T05:11:24.539Z,100886.91
2023-04-02T05:12:34.449Z,100884.94
2023-04-02T05:13:45.028Z,100887.03
2023-04-02T05:14:54.561Z,100880.47
2023-04-02T05:16:08.301Z,100874.47
2023-04-02T05:17:17.839Z,100885.28
2023-04-02T05:18:27.229Z,100861.50
2023-04-02T05:19:39.760Z,100866.28
2023-04-02T05:20:48.555Z,100870.72
2023-04-02T05:21:56.269Z,100852.09
2023-04-02T05:23:05.496Z,100857.75
2023-04-02T05:24:34.112Z,100862.31
2023-04-02T05:25:38.858Z,100871.22
2023-04-02T05:26:46.454Z,100862.09
2023-04-02T05:27:54.124Z,100859.03
2023-04-02T05:29:03.470Z,100850.31
2023-04-02T05:30:15.766Z,100848.69
2023-04-02T05:31:24.508Z,100843.31
2023-04-02T05:32:32.342Z,100822.38
2023-04-02T05:33:37.470Z,100848.56
2023-04-02T05:34:46.307Z,100845.78
2023-04-02T05:35:55.051Z,100810.38
2023-04-02T05:36:59.125Z,100843.00
2023-04-02T05:38:03.750Z,100841.00
2023-04-02T05:39:10.903Z,100824.22
2023-04-02T05:40:20.114Z,100832.50
2023-04-02T05:41:27.944Z,100837.47
2023-04-02T05:42:37.058Z,100833.97
2023-04-02T05:43:46.424Z,100813.31
2023-04-02T05:45:02.472Z,100817.66
2023-04-02T05:46:16.270Z,100800.25
2023-04-02T05:47:24.605Z,100825.94
2023-04-02T05:48:33.066Z,100809.50
2023-04-02T05:49:45.382Z,100813.81
2023-04-02T05:50:52.038Z,100812.06
2023-04-02T05:51:59.676Z,100813.56
2023-04-02T05:53:11.523Z,100802.19
2023-04-02T05:54:23.501Z,100795.00
2023-04-02T05:55:42.181Z,100803.69
2023-04-02T05:56:49.868Z,100802.53
2023-04-02T05:58:21.317Z,100801.03
2023-04-02T05:59:27.961Z,100792.69
2023-04-02T06:00:48.511Z,100793.97
2023-04-02T06:01:57.857Z,100775.97
2023-04-02T06:03:07.178Z,100803.06
2023-04-02T06:04:20.593Z,100787.78
2023-04-02T06:05:29.527Z,100782.09
2023-04-02T06:06:49.707Z,100765.06
2023-04-02T06:07:58.699Z,100771.72
2023-04-02T06:09:12.339Z,100739.22
2023-04-02T06:10:20.747Z,100761.88
2023-04-02T06:11:29.349Z,100766.91
2023-04-02T06:12:40.018Z,100762.22
2023-04-02T06:13:43.741Z,100754.84
2023-04-02T06:14:47.592Z,100724.09
2023-04-02T06:15:51.398Z,100749.13
2023-04-02T06:16:55.263Z,100748.53
2023-04-02T06:18:09.655Z,100747.94
2023-04-02T06:19:23.234Z,100742.47
2023-04-02T06:20:28.858Z,100736.13
2023-04-02T06:21:33.274Z,100728.09
2023-04-02T06:22:39.838Z,100723.78
2023-04-02T06:23:48.068Z,100725.50
2023-04-02T06:24:58.589Z,100722.09
2023-04-02T06:26:05.525Z,100718.56
2023-04-02T06:27:15.704Z,100717.34
2023-04-02T06:28:25.272Z,100701.72
2023-04-02T06:29:33.955Z,100698.38
2023-04-02T06:30:41.934Z,100699.97
2023-04-02T06:31:49.566Z,100695.88
2023-04-02T06:32:53.345Z,100693.72
2023-04-02T06:33:57.887Z,100689.97
2023-04-02T06:35:01.593Z,100690.59
2023-04-02T06:36:09.962Z,100688.44
2023-04-02T06:37:22.063Z,100678.50
2023-04-02T06:38:30.556Z,100681.63
2023-04-02T06:39:34.273Z,100679.00
2023-04-02T06:40:43.276Z,100680.63
2023-04-02T06:41:47.174Z,100680.84
2023-04-02T06:42:52.702Z,100678.25
2023-04-02T06:43:59.067Z,100673.19
2023-04-02T06:45:03.224Z,100675.47
2023-04-02T06:46:16.258Z,100673.00
2023-04-02T06:47:28.008Z,100691.22
2023-04-02T06:48:34.102Z,100688.78
2023-04-02T06:49:43.233Z,100692.44
2023-04-02T06:50:51.959Z,100683.13
2023-04-02T06:51:59.431Z,100679.59
2023-04-02T06:53:05.889Z,100667.44
2023-04-02T06:54:15.527Z,100678.13
2023-04-02T06:55:39.976Z,100666.97
2023-04-02T06:56:46.917Z,100672.09
2023-04-02T06:57:50.568Z,100675.84
2023-04-02T06:58:54.278Z,100639.66
2023-04-02T06:59:57.878Z,100660.00
2023-04-02T07:01:01.584Z,100666.00
2023-04-02T07:02:16.506Z,100673.66
2023-04-02T07:03:25.226Z,100657.47
2023-04-02T07:04:28.974Z,100658.22
2023-04-02T07:05:32.899Z,100654.41
2023-04-02T07:06:36.718Z,100647.31
2023-04-02T07:07:42.097Z,100646.72
2023-04-02T07:08:45.839Z,100632.13
2023-04-02T07:09:49.447Z,100627.56
2023-04-02T07:10:53.064Z,100630.84
2023-04-02T07:11:56.712Z,100635.19
2023-04-02T07:13:00.430Z,100633.22
2023-04-02T07:14:04.320Z,100638.66
2023-04-02T07:15:08.762Z,100627.84
2023-04-02T07:16:17.016Z,100624.09
2023-04-02T07:17:21.550Z,100623.72
2023-04-02T07:18:28.453Z,100601.59
2023-04-02T07:19:32.185Z,100628.63
2023-04-02T07:20:36.781Z,100609.25
2023-04-02T07:21:40.374Z,100617.41
2023-04-02T07:22:45.686Z,100603.13
2023-04-02T07:23:49.384Z,100601.53
2023-04-02T07:24:53.265Z,100588.81
2023-04-02T07:25:57.776Z,100596.25
2023-04-02T07:27:01.443Z,100601.94
2023-04-02T07:28:06.367Z,100600.91
2023-04-02T07:29:14.954Z,100594.09
2023-04-02T07:30:18.977Z,100590.84
2023-04-02T07:31:25.013Z,100582.94
2023-04-02T07:32:28.752Z,100586.25
2023-04-02T07:33:32.584Z,100586.25
2023-04-02T07:34:36.287Z,100586.06
2023-04-02T07:35:39.965Z,100589.03
2023-04-02T07:36:43.725Z,100571.03
2023-04-02T07:37:48.983Z,100587.06
2023-04-02T07:38:52.948Z,100574.44
2023-04-02T07:39:56.681Z,100593.50
2023-04-02T07:41:06.616Z,100584.50
2023-04-02T07:42:10.687Z,100584.97
2023-04-02T07:43:14.352Z,100582.34
2023-04-02T07:44:17.978Z,100580.81
2023-04-02T07:45:21.642Z,100584.94
2023-04-02T07:46:30.914Z,100584.44
2023-04-02T07:47:34.590Z,100579.75
2023-04-02T07:48:38.281Z,100573.78
2023-04-02T07:49:41.932Z,100580.41
2023-04-02T07:50:45.492Z,100564.66
2023-04-02T07:51:49.211Z,100558.06
2023-04-02T07:52:54.520Z,100550.69
2023-04-02T07:53:58.136Z,100568.00
2023-04-02T07:55:01.931Z,100552.19
2023-04-02T07:56:06.963Z,100545.53
2023-04-02T07:57:10.615Z,100547.66
2023-04-02T07:58:16.996Z,100538.03
2023-04-02T07:59:20.606Z,100545.25
2023-04-02T08:00:24.554Z,100529.28
2023-04-02T08:01:29.201Z,100535.69
2023-04-02T08:02:33.993Z,100531.75
2023-04-02T08:03:37.858Z,100544.34
2023-04-02T08:04:41.538Z,100531.84
2023-04-02T08:05:50.075Z,100540.09
2023-04-02T08:06:53.754Z,100521.44
2023-04-02T08:07:59.088Z,100533.88
2023-04-02T08:09:02.738Z,100533.53
2023-04-02T08:10:07.242Z,100520.53
2023-04-02T08:11:11.424Z,100529.00
2023-04-02T08:12:15.535Z,100517.78
2023-04-02T08:13:19.958Z,100513.66
2023-04-02T08:14:23.564Z,100524.81
2023-04-02T08:15:27.238Z,100528.47
2023-04-02T08:16:45.122Z,100510.75
2023-04-02T08:17:48.876Z,100513.56
2023-04-02T08:18:52.822Z,100505.63
2023-04-02T08:19:56.570Z,100490.94
2023-04-02T08:21:00.839Z,100499.38
2023-04-02T08:22:04.555Z,100499.41
2023-04-02T08:23:14.899Z,100490.56
2023-04-02T08:24:18.698Z,100497.59
2023-04-02T08:25:22.283Z,100486.19
2023-04-02T08:26:25.878Z,100488.69
2023-04-02T08:27:29.462Z,100483.53
2023-04-02T08:28:33.168Z,100486.31
2023-04-02T08:29:36.788Z,100478.16
2023-04-02T08:30:40.672Z,100478.88
2023-04-02T08:31:44.327Z,100472.34
2023-04-02T08:32:48.270Z,100481.31
2023-04-02T08:33:51.976Z,100480.09
2023-04-02T08:34:55.652Z,100477.75
2023-04-02T08:35:59.484Z,100481.06
2023-04-02T08:37:03.191Z,100480.69
2023-04-02T08:38:07.036Z,100462.25
2023-04-02T08:39:12.444Z,100481.41
2023-04-02T08:40:24.446Z,100478.72
2023-04-02T08:41:28.706Z,100487.53
2023-04-02T08:42:39.853Z,100489.09
2023-04-02T08:44:10.839Z,100483.19
2023-04-02T08:45:25.454Z,100485.53
2023-04-02T08:46:38.256Z,100491.47
2023-04-02T08:47:43.678Z,100495.44
2023-04-02T08:48:55.195Z,100498.28
2023-04-02T08:50:02.429Z,100486.97
2023-04-02T08:51:07.978Z,100492.91
2023-04-02T08:52:22.959Z,100498.81
2023-04-02T08:53:31.692Z,100487.44
2023-04-02T08:54:38.187Z,100501.72
2023-04-02T08:55:46.379Z,100497.66
2023-04-02T08:56:56.296Z,100486.72
2023-04-02T08:58:07.033Z,100491.09
2023-04-02T08:59:21.934Z,100489.72
2023-04-02T09:00:37.456Z,100484.97
2023-04-02T09:01:49.776Z,100492.56
2023-04-02T09:02:58.119Z,100491.72
2023-04-02T09:04:03.238Z,100488.56
2023-04-02T09:05:15.969Z,100494.56
2023-04-02T09:06:21.883Z,100487.28
2023-04-02T09:07:26.581Z,100491.78
2023-04-02T09:08:32.199Z,100494.50
2023-04-02T09:09:39.493Z,100483.50
2023-04-02T09:10:49.840Z,100484.84
2023-04-02T09:11:56.062Z,100466.88
2023-04-02T09:13:00.728Z,100483.31
2023-04-02T09:14:10.858Z,100484.47
2023-04-02T09:15:31.821Z,100478.91
2023-04-02T09:16:45.545Z,100477.19
2023-04-02T09:17:53.961Z,100474.16
2023-04-02T09:18:58.253Z,100480.75
2023-04-02T09:20:08.373Z,100484.63
2023-04-02T09:21:32.838Z,100466.41
2023-04-02T09:22:36.533Z,100473.00
2023-04-02T09:23:40.160Z,100449.78
2023-04-02T09:24:45.507Z,100465.47
2023-04-02T09:26:01.345Z,100475.88
2023-04-02T09:27:19.183Z,100475.94
2023-04-02T09:28:22.898Z,100480.53
2023-04-02T09:29:50.333Z,100475.38
2023-04-02T09:31:06.877Z,100471.97
2023-04-02T09:32:40.377Z,100481.81
2023-04-02T09:33:45.696Z,100478.88
2023-04-02T09:34:49.354Z,100475.00
2023-04-02T09:35:57.779Z,100471.97
2023-04-02T09:37:10.077Z,100471.50
2023-04-02T09:38:20.461Z,100467.41
2023-04-02T09:39:25.773Z,100470.59
2023-04-02T09:40:41.182Z,100470.75
2023-04-02T09:41:48.177Z,100467.84
2023-04-02T09:43:11.776Z,100446.38
2023-04-02T09:44:21.360Z,100468.78
2023-04-02T09:45:25.778Z,100472.78
2023-04-02T09:46:29.492Z,100468.41
2023-04-02T09:47:33.627Z,100462.34
2023-04-02T09:48:39.705Z,100473.47
2023-04-02T09:49:43.314Z,100434.47
2023-04-02T09:50:46.904Z,100469.91
2023-04-02T09:52:19.118Z,100447.19
2023-04-02T09:53:31.094Z,100457.88
2023-04-02T09:54:34.880Z,100453.66
2023-04-02T09:55:40.421Z,100449.31
2023-04-02T09:57:01.540Z,100448.19
2023-04-02T09:58:14.578Z,100453.59
2023-04-02T09:59:20.667Z,100452.59
2023-04-02T10:00:41.805Z,100425.63
2023-04-02T10:01:47.366Z,100449.72
2023-04-02T10:03:04.022Z,100448.44
2023-04-02T10:04:28.579Z,100429.75
2023-04-02T10:06:51.349Z,100448.41
2023-04-02T10:08:06.038Z,100453.25
2023-04-02T10:09:31.198Z,100458.63
2023-04-02T10:10:41.554Z,100440.03
2023-04-02T10:11:46.701Z,100464.38
2023-04-02T10:12:55.713Z,100446.06
2023-04-02T10:14:02.047Z,100471.19
2023-04-02T10:15:07.005Z,100471.56
2023-04-02T10:16:14.718Z,100480.00
2023-04-02T10:17:24.141Z,100472.00
2023-04-02T10:18:41.184Z,100478.34
2023-04-02T10:19:49.204Z,100493.13
2023-04-02T10:20:55.196Z,100483.06
2023-04-02T10:22:01.910Z,100493.06
2023-04-02T10:23:06.524Z,100500.47
2023-04-02T10:24:14.284Z,100501.34
2023-04-02T10:25:20.344Z,100508.00
2023-04-02T10:26:49.227Z,100510.09
2023-04-02T10:27:59.605Z,100498.53
2023-04-02T10:29:28.375Z,100510.94
2023-04-02T10:30:39.457Z,100476.13
2023-04-02T10:31:56.537Z,100503.53
2023-04-02T10:33:04.152Z,100492.00
2023-04-02T10:34:17.680Z,100504.69
2023-04-02T10:35:33.585Z,100504.22
2023-04-02T10:36:49.032Z,100503.34
2023-04-02T10:38:18.832Z,100505.28
2023-04-02T10:39:26.933Z,100508.03
2023-04-02T10:40:37.415Z,100511.44
2023-04-02T10:41:52.281Z,100510.41
2023-04-02T10:43:10.861Z,100521.75
2023-04-02T10:44:41.038Z,100506.47
2023-04-02T10:45:49.662Z,100525.56
2023-04-02T10:47:08.975Z,100532.75
2023-04-02T10:48:22.659Z,100529.25
2023-04-02T10:49:34.404Z,100545.56
2023-04-02T10:50:46.851Z,100543.03
2023-04-02T10:51:59.253Z,100545.41
2023-04-02T10:53:11.828Z,100541.53
2023-04-02T10:54:31.943Z,100554.34
2023-04-02T10:55:38.097Z,100548.63
2023-04-02T10:56:50.491Z,100552.75
2023-04-02T10:58:01.118Z,100542.19
2023-04-02T10:59:12.739Z,100539.31
2023-04-02T11:00:23.298Z,100540.97
2023-04-02T11:01:29.502Z,100530.38
2023-04-02T11:02:39.354Z,100533.78
2023-04-02T11:03:47.605Z,100522.13
2023-04-02T11:04:55.411Z,100528.31
2023-04-02T11:06:03.408Z,100528.41
2023-04-02T11:07:14.383Z,100525.13
2023-04-02T11:08:23.442Z,100527.03
2023-04-02T11:09:32.327Z,100531.59
2023-04-02T11:10:40.294Z,100515.56
2023-04-02T11:11:47.506Z,100525.84
2023-04-02T11:12:57.034Z,100518.94
2023-04-02T11:14:04.298Z,100523.19
2023-04-02T11:15:16.849Z,100528.59
2023-04-02T11:16:20.871Z,100529.41
2023-04-02T11:17:25.417Z,100520.97
2023-04-02T11:18:30.793Z,100531.56
2023-04-02T11:19:35.249Z,100530.00
2023-04-02T11:20:58.257Z,100542.72
2023-04-02T11:22:06.652Z,100538.25
2023-04-02T11:23:12.965Z,100539.09
2023-04-02T11:24:40.819Z,100545.66
2023-04-02T11:25:45.951Z,100534.25
2023-04-02T11:26:49.773Z,100541.34
2023-04-02T11:27:55.254Z,100541.47
2023-04-02T11:29:25.180Z,100549.13
2023-04-02T11:30:29.356Z,100548.47
2023-04-02T11:31:33.613Z,100542.44
2023-04-02T11:32:39.711Z,100552.41
2023-04-02T11:33:46.057Z,100565.78
2023-04-02T11:35:19.252Z,100561.59
2023-04-02T11:37:00.060Z,100581.78
2023-04-02T11:38:24.151Z,100581.66
2023-04-02T11:39:49.780Z,100599.13
2023-04-02T11:40:54.070Z,100600.91
2023-04-02T11:42:07.216Z,100598.59
2023-04-02T11:43:57.759Z,100613.16
2023-04-02T11:45:56.272Z,100612.38
2023-04-02T11:47:19.121Z,100601.03
2023-04-02T11:48:31.441Z,100590.66
2023-04-02T11:49:40.413Z,100600.00
2023-04-02T11:50:45.536Z,100600.69
2023-04-02T11:51:54.371Z,100597.94
2023-04-02T11:53:20.182Z,100595.78
2023-04-02T11:54:26.985Z,100602.50
2023-04-02T11:55:32.481Z,100589.13
2023-04-02T11:56:42.610Z,100601.84
2023-04-02T11:57:56.665Z,100595.47
2023-04-02T11:59:10.936Z,100600.78
2023-04-02T12:00:32.601Z,100601.69
2023-04-02T12:01:51.313Z,100589.50
2023-04-02T12:03:13.893Z,100605.97
2023-04-02T12:04:51.935Z,100599.91
2023-04-02T12:06:03.751Z,100602.41
2023-04-02T12:07:47.463Z,100602.69
2023-04-02T12:09:01.691Z,100601.50
2023-04-02T12:10:17.104Z,100593.13
2023-04-02T12:11:34.218Z,100595.66
2023-04-02T12:12:39.814Z,100602.44
2023-04-02T12:13:54.608Z,100591.94
2023-04-02T12:14:59.306Z,100597.41
2023-04-02T12:16:04.955Z,100595.91
2023-04-02T12:17:21.066Z,100587.16
2023-04-02T12:18:25.884Z,100611.34
2023-04-02T12:19:31.205Z,100612.78
2023-04-02T12:20:35.788Z,100605.19
2023-04-02T12:21:46.798Z,100621.06
2023-04-02T12:22:52.758Z,100630.06
2023-04-02T12:24:02.860Z,100621.31
2023-04-02T12:25:20.222Z,100629.56
2023-04-02T12:26:30.827Z,100630.09
2023-04-02T12:27:34.516Z,100628.22
2023-04-02T12:28:38.244Z,100630.13
2023-04-02T12:29:42.297Z,100631.19
2023-04-02T12:30:46.649Z,100623.25
2023-04-02T12:31:52.768Z,100614.34
2023-04-02T12:32:56.414Z,100630.66
2023-04-02T12:34:00.157Z,100626.47
2023-04-02T12:35:05.681Z,100621.03
2023-04-02T12:36:21.158Z,100616.50
2023-04-02T12:37:26.619Z,100614.06
2023-04-02T12:38:31.566Z,100618.97
2023-04-02T12:39:35.856Z,100630.84
2023-04-02T12:40:39.503Z,100630.59
2023-04-02T12:41:43.147Z,100632.91
2023-04-02T12:42:46.817Z,100608.50
2023-04-02T12:43:58.318Z,100630.94
2023-04-02T12:45:02.363Z,100611.94
2023-04-02T12:46:09.015Z,100628.97
2023-04-02T12:47:14.991Z,100625.25
2023-04-02T12:48:19.052Z,100634.22
2023-04-02T12:49:32.067Z,100646.97
2023-04-02T12:50:36.153Z,100632.53
2023-04-02T12:51:40.429Z,100663.00
2023-04-02T12:53:02.082Z,100659.28
2023-04-02T12:54:06.456Z,100654.22
2023-04-02T12:55:23.353Z,100660.09
2023-04-02T12:56:26.936Z,100651.81
2023-04-02T12:57:38.940Z,100656.47
2023-04-02T12:58:43.625Z,100645.72
2023-04-02T12:59:47.294Z,100633.31
2023-04-02T13:00:50.915Z,100643.91
2023-04-02T13:01:58.812Z,100644.72
2023-04-02T13:03:18.595Z,100650.69
2023-04-02T13:04:22.449Z,100649.50
2023-04-02T13:05:38.245Z,100652.28
2023-04-02T13:06:48.367Z,100661.81
2023-04-02T13:07:52.027Z,100662.50
2023-04-02T13:08:56.189Z,100656.56
2023-04-02T13:10:01.525Z,100660.91
2023-04-02T13:11:07.089Z,100670.78
2023-04-02T13:12:26.237Z,100662.03